Dades meteomassalio
 
Diari Summary for Agost 17, 2018 Units:  Both    English   Metric
« Previous Day
Next Day »
Diari Semanal Mensual Anual Personalitzat
  Actual: Maxima: Minima: Mijana:
Temperatura: 19.4 °F /  -7 °C TemperatureC °F /  -17.8 °C 18.9 °F /  -7.3 °C 19.7 °F /  -6.8 °C
Rosada: 16.1 °F /  -8.8 °C DewpointC °F /  -17.8 °C 14.5 °F /  -9.7 °C 15.8 °F /  -9 °C
Humitat: 81 % Humidity % 69 % 77 %
Velocitat del vent: 3.7 mph /  6 km/h WindSpeedKMH mph /  0 km/h - 6.7 mph /  10.8 km/h
Racha vent: 0.0 mph /  0 km/h WindSpeedGustKMH mph /  0 km/h - -
Vent:WNW - - WNW
Pressio: 1018.7 in /  34493.2 hPa PressurehPa in /  0 hPa 1017.3 in /  34445.8 hPa -
Pluja: 0.0 in /  0 mm      
Historical Graphs
 
 
Tabular Data for Agost 17, 2018
Time Temperature Dew Point Pressure Wind Wind Speed Wind Gust Humidity Rainfall Rate (Hourly) solar Conditions
TemperatureC °F /  -17.8 °C DewpointC °F /  -17.8 °C PressurehPa in /  0 hPa Calm     Humidity % HourlyPrecipMM in /  0 mm SolarRadiationWatts/m^2 W/m2 Conditions
00:04 21.1 °F /  -6.1 °C 15.2 °F /  -9.3 °C 1017.9 in /  34466.1 hPa NW 18.5 mph /  29.8 km/h 14.6 mph /  23.5 km/h 69 % 0.0 in /  0 mm 0.00 W/m2 CLR
00:09 21.1 °F /  -6.1 °C 15.2 °F /  -9.3 °C 1017.9 in /  34466.1 hPa NNW 13.0 mph /  20.9 km/h 9.5 mph /  15.3 km/h 69 % 0.0 in /  0 mm 0.00 W/m2 CLR
00:14 21.1 °F /  -6.1 °C 15.4 °F /  -9.2 °C 1017.9 in /  34466.1 hPa Calm     70 % 0.0 in /  0 mm 0.00 W/m2 CLR
00:19 21.1 °F /  -6.1 °C 15.4 °F /  -9.2 °C 1018.0 in /  34469.5 hPa Calm     70 % 0.0 in /  0 mm 0.00 W/m2 CLR
00:24 21.1 °F /  -6.1 °C 15.4 °F /  -9.2 °C 1018.3 in /  34479.6 hPa Calm     70 % 0.0 in /  0 mm 0.00 W/m2 CLR
00:29 20.6 °F /  -6.3 °C 15.1 °F /  -9.4 °C 1018.2 in /  34476.3 hPa Calm     71 % 0.0 in /  0 mm 0.00 W/m2 CLR
00:34 20.6 °F /  -6.3 °C 15.1 °F /  -9.4 °C 1018.3 in /  34479.6 hPa Calm     71 % 0.0 in /  0 mm 0.00 W/m2 CLR
00:39 20.6 °F /  -6.3 °C 15.1 °F /  -9.4 °C 1018.2 in /  34476.3 hPa Calm     71 % 0.0 in /  0 mm 0.00 W/m2 CLR
00:44 20.6 °F /  -6.3 °C 15.1 °F /  -9.4 °C 1018.1 in /  34472.9 hPa Calm     71 % 0.0 in /  0 mm 0.00 W/m2 CLR
00:49 20.6 °F /  -6.3 °C 15.1 °F /  -9.4 °C 1018.2 in /  34476.3 hPa WNW 7.4 mph /  11.9 km/h   71 % 0.0 in /  0 mm 0.00 W/m2 CLR
00:54 20.6 °F /  -6.3 °C 14.9 °F /  -9.5 °C 1018.2 in /  34476.3 hPa Calm     70 % 0.0 in /  0 mm 0.00 W/m2 CLR
00:59 21.1 °F /  -6.1 °C 15.4 °F /  -9.2 °C 1018.3 in /  34479.6 hPa West 5.6 mph /  9 km/h 2.3 mph /  3.7 km/h 70 % 0.0 in /  0 mm 0.00 W/m2 CLR
01:04 21.1 °F /  -6.1 °C 15.4 °F /  -9.2 °C 1018.3 in /  34479.6 hPa Calm     70 % 0.0 in /  0 mm 0.00 W/m2 CLR
01:09 21.1 °F /  -6.1 °C 15.7 °F /  -9.1 °C 1018.3 in /  34479.6 hPa Calm     71 % 0.0 in /  0 mm 0.00 W/m2 CLR
01:14 20.6 °F /  -6.3 °C 15.1 °F /  -9.4 °C 1018.4 in /  34483 hPa Calm     71 % 0.0 in /  0 mm 0.00 W/m2 CLR
01:19 20.6 °F /  -6.3 °C 15.1 °F /  -9.4 °C 1018.4 in /  34483 hPa Calm     71 % 0.0 in /  0 mm 0.00 W/m2 CLR
01:24 20.6 °F /  -6.3 °C 15.3 °F /  -9.3 °C 1018.3 in /  34479.6 hPa Calm     72 % 0.0 in /  0 mm 0.00 W/m2 CLR
01:29 20.6 °F /  -6.3 °C 15.3 °F /  -9.3 °C 1018.2 in /  34476.3 hPa Calm     72 % 0.0 in /  0 mm 0.00 W/m2 CLR
01:34 20.6 °F /  -6.3 °C 15.3 °F /  -9.3 °C 1018.3 in /  34479.6 hPa Calm     72 % 0.0 in /  0 mm 0.00 W/m2 CLR
01:39 20.6 °F /  -6.3 °C 15.3 °F /  -9.3 °C 1018.4 in /  34483 hPa Calm     72 % 0.0 in /  0 mm 0.00 W/m2 CLR
01:44 20.0 °F /  -6.7 °C 14.8 °F /  -9.6 °C 1018.4 in /  34483 hPa Calm     72 % 0.0 in /  0 mm 0.00 W/m2 CLR
01:49 20.0 °F /  -6.7 °C 14.8 °F /  -9.6 °C 1018.5 in /  34486.4 hPa Calm     72 % 0.0 in /  0 mm 0.00 W/m2 CLR
01:54 19.4 °F /  -7 °C 14.5 °F /  -9.7 °C 1018.5 in /  34486.4 hPa Calm     73 % 0.0 in /  0 mm 0.00 W/m2 CLR
01:59 19.4 °F /  -7 °C 14.5 °F /  -9.7 °C 1018.5 in /  34486.4 hPa Calm     73 % 0.0 in /  0 mm 0.00 W/m2 CLR
02:04 19.4 °F /  -7 °C 14.5 °F /  -9.7 °C 1018.5 in /  34486.4 hPa Calm     73 % 0.0 in /  0 mm 0.00 W/m2 CLR
02:09 19.4 °F /  -7 °C 14.7 °F /  -9.6 °C 1018.3 in /  34479.6 hPa Calm     74 % 0.0 in /  0 mm 0.00 W/m2 CLR
02:14 20.0 °F /  -6.7 °C 15.4 °F /  -9.2 °C 1018.3 in /  34479.6 hPa WNW 7.4 mph /  11.9 km/h 5.6 mph /  9 km/h 75 % 0.0 in /  0 mm 0.00 W/m2 CLR
02:19 20.0 °F /  -6.7 °C 15.7 °F /  -9.1 °C 1018.2 in /  34476.3 hPa Calm     76 % 0.0 in /  0 mm 0.00 W/m2 CLR
02:24 20.0 °F /  -6.7 °C 15.7 °F /  -9.1 °C 1018.2 in /  34476.3 hPa Calm     76 % 0.0 in /  0 mm 0.00 W/m2 CLR
02:29 20.0 °F /  -6.7 °C 15.8 °F /  -9 °C 1018.2 in /  34476.3 hPa Calm     77 % 0.0 in /  0 mm 0.00 W/m2 CLR
02:34 20.0 °F /  -6.7 °C 16.1 °F /  -8.8 °C 1018.2 in /  34476.3 hPa WNW 9.3 mph /  15 km/h 4.2 mph /  6.8 km/h 78 % 0.0 in /  0 mm 0.00 W/m2 CLR
02:39 20.0 °F /  -6.7 °C 16.1 °F /  -8.8 °C 1018.3 in /  34479.6 hPa WNW 9.7 mph /  15.6 km/h 6.8 mph /  10.9 km/h 78 % 0.0 in /  0 mm 0.00 W/m2 CLR
02:44 20.0 °F /  -6.7 °C 16.1 °F /  -8.8 °C 1018.3 in /  34479.6 hPa WNW 11.1 mph /  17.9 km/h 8.0 mph /  12.9 km/h 78 % 0.0 in /  0 mm 0.00 W/m2 CLR
02:49 20.0 °F /  -6.7 °C 16.2 °F /  -8.8 °C 1018.3 in /  34479.6 hPa WNW 6.4 mph /  10.3 km/h 0.5 mph /  0.8 km/h 79 % 0.0 in /  0 mm 0.00 W/m2 CLR
02:54 20.0 °F /  -6.7 °C 16.2 °F /  -8.8 °C 1018.3 in /  34479.6 hPa WNW 11.1 mph /  17.9 km/h 6.1 mph /  9.8 km/h 79 % 0.0 in /  0 mm 0.00 W/m2 CLR
02:59 20.0 °F /  -6.7 °C 16.2 °F /  -8.8 °C 1018.3 in /  34479.6 hPa WNW 9.3 mph /  15 km/h 5.3 mph /  8.5 km/h 79 % 0.0 in /  0 mm 0.00 W/m2 CLR
03:04 20.0 °F /  -6.7 °C 16.4 °F /  -8.7 °C 1018.2 in /  34476.3 hPa WNW 16.7 mph /  26.9 km/h 9.8 mph /  15.8 km/h 80 % 0.0 in /  0 mm 0.00 W/m2 CLR
03:09 20.0 °F /  -6.7 °C 16.4 °F /  -8.7 °C 1018.1 in /  34472.9 hPa WNW 11.1 mph /  17.9 km/h 8.8 mph /  14.2 km/h 80 % 0.0 in /  0 mm 0.00 W/m2 CLR
03:14 20.0 °F /  -6.7 °C 16.4 °F /  -8.7 °C 1018.0 in /  34469.5 hPa West 16.7 mph /  26.9 km/h 12.6 mph /  20.3 km/h 80 % 0.0 in /  0 mm 0.00 W/m2 CLR
03:19 20.6 °F /  -6.3 °C 17.0 °F /  -8.3 °C 1017.9 in /  34466.1 hPa West 13.0 mph /  20.9 km/h 8.7 mph /  14 km/h 80 % 0.0 in /  0 mm 0.00 W/m2 CLR
03:24 20.6 °F /  -6.3 °C 17.2 °F /  -8.2 °C 1017.8 in /  34462.7 hPa West 16.7 mph /  26.9 km/h 11.3 mph /  18.2 km/h 81 % 0.0 in /  0 mm 0.00 W/m2 CLR
03:29 20.6 °F /  -6.3 °C 17.2 °F /  -8.2 °C 1017.7 in /  34459.3 hPa West 14.8 mph /  23.8 km/h 7.6 mph /  12.2 km/h 81 % 0.0 in /  0 mm 0.00 W/m2 CLR
03:34 20.6 °F /  -6.3 °C 17.2 °F /  -8.2 °C 1017.8 in /  34462.7 hPa WNW 20.4 mph /  32.8 km/h 15.1 mph /  24.3 km/h 81 % 0.0 in /  0 mm 0.00 W/m2 CLR
03:39 20.6 °F /  -6.3 °C 17.2 °F /  -8.2 °C 1018.0 in /  34469.5 hPa WNW 11.3 mph /  18.2 km/h 6.8 mph /  10.9 km/h 81 % 0.0 in /  0 mm 0.00 W/m2 CLR
03:44 20.6 °F /  -6.3 °C 17.4 °F /  -8.1 °C 1018.0 in /  34469.5 hPa WSW 13.0 mph /  20.9 km/h 3.4 mph /  5.5 km/h 82 % 0.0 in /  0 mm 0.00 W/m2 CLR
03:49 20.6 °F /  -6.3 °C 17.4 °F /  -8.1 °C 1017.9 in /  34466.1 hPa WNW 11.1 mph /  17.9 km/h 8.2 mph /  13.2 km/h 82 % 0.0 in /  0 mm 0.00 W/m2 CLR
03:54 20.0 °F /  -6.7 °C 16.8 °F /  -8.4 °C 1017.8 in /  34462.7 hPa NW 11.1 mph /  17.9 km/h 6.1 mph /  9.8 km/h 82 % 0.0 in /  0 mm 0.00 W/m2 CLR
03:59 20.0 °F /  -6.7 °C 17.0 °F /  -8.3 °C 1017.6 in /  34455.9 hPa West 5.6 mph /  9 km/h 3.2 mph /  5.1 km/h 83 % 0.0 in /  0 mm 0.00 W/m2 CLR
04:04 20.0 °F /  -6.7 °C 16.8 °F /  -8.4 °C 1017.5 in /  34452.6 hPa West 18.5 mph /  29.8 km/h 5.8 mph /  9.3 km/h 82 % 0.0 in /  0 mm 0.00 W/m2 CLR
04:09 20.0 °F /  -6.7 °C 16.8 °F /  -8.4 °C 1017.4 in /  34449.2 hPa WNW 12.9 mph /  20.8 km/h 5.5 mph /  8.9 km/h 82 % 0.0 in /  0 mm 0.00 W/m2 CLR
04:14 20.0 °F /  -6.7 °C 16.8 °F /  -8.4 °C 1017.3 in /  34445.8 hPa WNW 7.4 mph /  11.9 km/h 4.3 mph /  6.9 km/h 82 % 0.0 in /  0 mm 0.00 W/m2 CLR
04:19 20.0 °F /  -6.7 °C 16.8 °F /  -8.4 °C 1017.3 in /  34445.8 hPa NW 1.9 mph /  3.1 km/h   82 % 0.0 in /  0 mm 0.00 W/m2 CLR
04:24 20.0 °F /  -6.7 °C 16.8 °F /  -8.4 °C 1017.4 in /  34449.2 hPa Calm     82 % 0.0 in /  0 mm 0.00 W/m2 CLR
04:29 20.0 °F /  -6.7 °C 16.8 °F /  -8.4 °C 1017.5 in /  34452.6 hPa Calm     82 % 0.0 in /  0 mm 0.00 W/m2 CLR
04:34 20.0 °F /  -6.7 °C 16.8 °F /  -8.4 °C 1017.6 in /  34455.9 hPa Calm     82 % 0.0 in /  0 mm 0.00 W/m2 CLR
04:39 19.4 °F /  -7 °C 16.3 °F /  -8.7 °C 1017.6 in /  34455.9 hPa North 13.0 mph /  20.9 km/h 7.7 mph /  12.4 km/h 82 % 0.0 in /  0 mm 0.00 W/m2 CLR
04:44 19.4 °F /  -7 °C 16.5 °F /  -8.6 °C 1017.7 in /  34459.3 hPa NNW 13.0 mph /  20.9 km/h 4.7 mph /  7.6 km/h 83 % 0.0 in /  0 mm 0.00 W/m2 CLR
04:49 20.0 °F /  -6.7 °C 17.0 °F /  -8.3 °C 1017.7 in /  34459.3 hPa North 16.7 mph /  26.9 km/h 11.4 mph /  18.3 km/h 83 % 0.0 in /  0 mm 0.00 W/m2 CLR
04:54 19.4 °F /  -7 °C 16.5 °F /  -8.6 °C 1017.6 in /  34455.9 hPa North 14.5 mph /  23.3 km/h 6.8 mph /  10.9 km/h 83 % 0.0 in /  0 mm 0.00 W/m2 CLR
04:59 19.4 °F /  -7 °C 16.5 °F /  -8.6 °C 1017.7 in /  34459.3 hPa NNW 18.5 mph /  29.8 km/h 14.3 mph /  23 km/h 83 % 0.0 in /  0 mm 0.00 W/m2 CLR
05:04 19.4 °F /  -7 °C 16.5 °F /  -8.6 °C 1017.5 in /  34452.6 hPa NW 11.3 mph /  18.2 km/h 9.8 mph /  15.8 km/h 83 % 0.0 in /  0 mm 0.00 W/m2 CLR
05:09 19.4 °F /  -7 °C 16.7 °F /  -8.5 °C 1017.5 in /  34452.6 hPa NW 14.8 mph /  23.8 km/h 14.5 mph /  23.3 km/h 84 % 0.0 in /  0 mm 0.00 W/m2 CLR
05:14 19.4 °F /  -7 °C 16.8 °F /  -8.4 °C 1017.4 in /  34449.2 hPa NW 20.4 mph /  32.8 km/h 14.8 mph /  23.8 km/h 85 % 0.0 in /  0 mm 0.00 W/m2 CLR
05:19 19.4 °F /  -7 °C 16.7 °F /  -8.5 °C 1017.5 in /  34452.6 hPa NW 20.4 mph /  32.8 km/h 14.8 mph /  23.8 km/h 84 % 0.0 in /  0 mm 0.00 W/m2 CLR
05:24 19.4 °F /  -7 °C 16.7 °F /  -8.5 °C 1017.6 in /  34455.9 hPa NNW 16.7 mph /  26.9 km/h 11.4 mph /  18.3 km/h 84 % 0.0 in /  0 mm 0.00 W/m2 CLR
05:29 19.4 °F /  -7 °C 16.5 °F /  -8.6 °C 1017.6 in /  34455.9 hPa NW 14.8 mph /  23.8 km/h 13.4 mph /  21.6 km/h 83 % 0.0 in /  0 mm 0.00 W/m2 CLR
05:34 19.4 °F /  -7 °C 16.3 °F /  -8.7 °C 1017.5 in /  34452.6 hPa WNW 13.0 mph /  20.9 km/h 10.3 mph /  16.6 km/h 82 % 0.0 in /  0 mm 0.00 W/m2 CLR
05:39 19.4 °F /  -7 °C 16.3 °F /  -8.7 °C 1017.6 in /  34455.9 hPa WNW 16.7 mph /  26.9 km/h 12.4 mph /  20 km/h 82 % 0.0 in /  0 mm 0.00 W/m2 CLR
05:44 19.4 °F /  -7 °C 16.3 °F /  -8.7 °C 1017.7 in /  34459.3 hPa NW 13.0 mph /  20.9 km/h 9.8 mph /  15.8 km/h 82 % 0.0 in /  0 mm 0.00 W/m2 CLR
05:49 19.4 °F /  -7 °C 16.3 °F /  -8.7 °C 1017.7 in /  34459.3 hPa WNW 5.6 mph /  9 km/h 1.6 mph /  2.6 km/h 82 % 0.0 in /  0 mm 0.00 W/m2 CLR
05:54 19.4 °F /  -7 °C 16.3 °F /  -8.7 °C 1017.8 in /  34462.7 hPa WNW 3.7 mph /  6 km/h   82 % 0.0 in /  0 mm 0.00 W/m2 CLR
05:59 19.4 °F /  -7 °C 16.1 °F /  -8.8 °C 1017.9 in /  34466.1 hPa Calm     81 % 0.0 in /  0 mm 0.00 W/m2 CLR
06:04 19.4 °F /  -7 °C 16.1 °F /  -8.8 °C 1018.1 in /  34472.9 hPa Calm     81 % 0.0 in /  0 mm 0.00 W/m2 CLR
06:09 19.4 °F /  -7 °C 16.1 °F /  -8.8 °C 1018.1 in /  34472.9 hPa Calm     81 % 0.0 in /  0 mm 0.00 W/m2 CLR
06:14 18.9 °F /  -7.3 °C 15.6 °F /  -9.1 °C 1018.1 in /  34472.9 hPa Calm     81 % 0.0 in /  0 mm 0.00 W/m2 CLR
06:19 18.9 °F /  -7.3 °C 15.7 °F /  -9.1 °C 1018.0 in /  34469.5 hPa Calm     82 % 0.0 in /  0 mm 0.00 W/m2 CLR
06:24 18.9 °F /  -7.3 °C 15.7 °F /  -9.1 °C 1018.1 in /  34472.9 hPa Calm     82 % 0.0 in /  0 mm 0.00 W/m2 CLR
06:29 18.9 °F /  -7.3 °C 15.6 °F /  -9.1 °C 1018.1 in /  34472.9 hPa NW 7.4 mph /  11.9 km/h 5.0 mph /  8 km/h 81 % 0.0 in /  0 mm 0.00 W/m2 CLR
06:34 18.9 °F /  -7.3 °C 15.6 °F /  -9.1 °C 1018.2 in /  34476.3 hPa NW 11.1 mph /  17.9 km/h 1.4 mph /  2.3 km/h 81 % 0.0 in /  0 mm 0.00 W/m2 CLR
06:39 19.4 °F /  -7 °C 15.9 °F /  -8.9 °C 1018.3 in /  34479.6 hPa Calm     80 % 0.0 in /  0 mm 0.00 W/m2 CLR
06:44 18.9 °F /  -7.3 °C 15.4 °F /  -9.2 °C 1018.5 in /  34486.4 hPa Calm     80 % 0.0 in /  0 mm 0.00 W/m2 CLR
06:49 18.9 °F /  -7.3 °C 15.4 °F /  -9.2 °C 1018.5 in /  34486.4 hPa Calm     80 % 0.0 in /  0 mm 0.00 W/m2 CLR
06:54 18.9 °F /  -7.3 °C 15.4 °F /  -9.2 °C 1018.5 in /  34486.4 hPa NW 14.8 mph /  23.8 km/h 7.6 mph /  12.2 km/h 80 % 0.0 in /  0 mm 0.00 W/m2 CLR
06:59 19.4 °F /  -7 °C 15.9 °F /  -8.9 °C 1018.6 in /  34489.8 hPa Calm     80 % 0.0 in /  0 mm 0.00 W/m2 CLR
07:04 19.4 °F /  -7 °C 15.9 °F /  -8.9 °C 1018.6 in /  34489.8 hPa WNW 4.8 mph /  7.7 km/h 1.1 mph /  1.8 km/h 80 % 0.0 in /  0 mm 0.00 W/m2 OVC
07:09 19.4 °F /  -7 °C 15.9 °F /  -8.9 °C 1018.7 in /  34493.2 hPa NW 12.9 mph /  20.8 km/h 4.5 mph /  7.2 km/h 80 % 0.0 in /  0 mm 0.00 W/m2 OVC
07:14 19.4 °F /  -7 °C 16.1 °F /  -8.8 °C 1018.7 in /  34493.2 hPa WNW 3.7 mph /  6 km/h   81 % 0.0 in /  0 mm 0.00 W/m2 OVC
Lo Temps de Massalio
Compliments of Weather Underground - 512 kb